Avon, Massachusetts
Current Conditions -  °F | °C
As of 2:53 PM on Thursday 30 Oct 2014 (Local Time) from KOWD Reporting Station
Broken Clouds Broken Clouds  
Wind Chill: 57°   Ceiling: 6500
Heat Index: 57°   Visibility: 10mi
Dew Point: 37°   Wind: 15mph
Humidity: 47%   Direction: 290°WNW
Pressure: 29.9"   Gusts: NA
Location:  42.13°N, 71.04°W
Report Text: KOWD 301853Z 29013KT 10SM SCT055 BKN065 14/03 A2990 RMK AO2 SLP126 T01390028
Loading
Personal Weather Stations






























Interactive Weather Map
Tropical Storm Tracking
New forecast layout! Learn more

10-Day Weather Forecast

Advertisements
Track Severe Weather on mobile